Dubuisson, Canada
Current Conditions -  °F | °C
As of 9:00 AM on Wednesday 28 Jan 2015 (Local Time) from CYVO Reporting Station
Clear Clear  
Wind Chill: -18°   Ceiling: Unl
Heat Index: -18°   Visibility: 15mi
Dew Point: -24°   Wind: 2mph
Humidity: 76%   Direction: 190°S
Pressure: 30.2"   Gusts: NA
Location:  48.1°N, 77.9°W
Report Text: CYVO 281400Z 19002KT 15SM SKC M28/M31 A3020 RMK SLP271
Loading
Personal Weather Stations






























Interactive Weather Map New forecast layout! Learn more

10-Day Weather Forecast

Advertisements
Track Severe Weather on mobile